Time;durP1;ratioP1;P1;durP2;ratioP2;P2;SDS_P1;SDS_P2;PMS_P1;PMS_P2;Temp;Humidity;BMP_temperature;BMP_pressure;BME280_temperature;BME280_humidity;BME280_pressure;Samples;Min_cycle;Max_cycle;Signal;HPM_P1;HPM_P2
2023/05/02 00:01:15;;;;;;;2.47;2.13;;;;;;;12.39;72.62;94933.66;5053980;28;20211;-80
2023/05/02 00:03:42;;;;;;;2.88;2.15;;;;;;;12.51;71.97;94939.16;5060249;28;20633;-77
2023/05/02 00:06:10;;;;;;;2.53;2.17;;;;;;;12.58;71.78;94931.25;5059668;28;20199;-77
2023/05/02 00:08:37;;;;;;;5.35;2.55;;;;;;;12.58;71.61;94933.97;5047785;28;20206;-76
2023/05/02 00:11:05;;;;;;;2.55;2.35;;;;;;;12.59;71.77;94942.91;5060239;28;20210;-78
2023/05/02 00:13:32;;;;;;;1.85;1.55;;;;;;;12.51;72.00;94932.91;5060079;28;20209;-78
2023/05/02 00:15:58;;;;;;;3.40;1.92;;;;;;;12.50;72.02;94932.13;5046759;28;20239;-81
2023/05/02 00:18:25;;;;;;;3.90;2.80;;;;;;;12.54;72.17;94940.41;5060062;28;20207;-76
2023/05/02 00:20:52;;;;;;;4.50;2.85;;;;;;;12.59;72.08;94932.84;5059983;28;20975;-78
2023/05/02 00:23:20;;;;;;;3.88;2.72;;;;;;;12.56;72.18;94927.28;5053779;28;20616;-77
2023/05/02 00:25:47;;;;;;;3.40;2.38;;;;;;;12.62;71.82;94937.63;5053411;28;20203;-77
2023/05/02 00:28:14;;;;;;;3.35;2.60;;;;;;;12.55;72.26;94945.53;5058682;28;20204;-77
2023/05/02 00:30:44;;;;;;;5.25;2.25;;;;;;;12.46;72.78;94944.78;5062234;28;20685;-76
2023/05/02 00:33:12;;;;;;;2.40;2.20;;;;;;;12.41;72.90;94942.28;5059450;28;20260;-76
2023/05/02 00:35:38;;;;;;;2.38;2.08;;;;;;;12.36;73.10;94945.97;5057556;28;20237;-76
2023/05/02 00:38:06;;;;;;;3.83;2.42;;;;;;;12.37;72.97;94949.47;5061453;28;20218;-76
2023/05/02 00:40:44;;;;;;;3.60;2.83;;;;;;;12.30;73.25;94954.66;5065916;28;20727;-75
2023/05/02 00:43:11;;;;;;;3.85;2.60;;;;;;;12.27;73.68;94958.81;5060342;28;20207;-76
2023/05/02 00:45:39;;;;;;;3.60;2.40;;;;;;;12.18;74.01;94962.69;5050703;28;20617;-75
2023/05/02 00:48:07;;;;;;;4.10;3.20;;;;;;;12.22;74.13;94963.63;5061446;28;20210;-77
2023/05/02 00:50:35;;;;;;;4.22;2.90;;;;;;;12.25;74.17;94971.13;5052553;28;20211;-77
2023/05/02 00:53:04;;;;;;;5.05;2.95;;;;;;;12.23;74.22;94957.09;5062209;28;20253;-75
2023/05/02 00:55:31;;;;;;;7.80;3.25;;;;;;;12.18;74.59;94954.56;5064606;28;20285;-75
2023/05/02 00:58:00;;;;;;;5.47;2.33;;;;;;;12.17;74.56;94958.38;5057851;28;20200;-78
2023/05/02 01:00:33;;;;;;;3.83;2.90;;;;;;;12.08;74.92;94967.41;5064414;28;20349;-76
2023/05/02 01:03:10;;;;;;;2.97;2.38;;;;;;;11.99;75.25;94963.94;5063424;28;20293;-77
2023/05/02 01:05:46;;;;;;;3.47;2.88;;;;;;;11.91;75.81;94956.63;5046728;28;20210;-76
2023/05/02 01:08:24;;;;;;;5.20;3.50;;;;;;;11.91;76.07;94964.78;5056578;28;20226;-75
2023/05/02 01:11:00;;;;;;;3.50;2.10;;;;;;;11.87;76.36;94963.84;5059178;28;20196;-77
2023/05/02 01:13:33;;;;;;;4.50;2.85;;;;;;;11.81;76.75;94967.06;5050081;28;20608;-76
2023/05/02 01:16:02;;;;;;;3.45;3.05;;;;;;;11.79;77.02;94959.25;5063677;28;20230;-77
2023/05/02 01:18:33;;;;;;;2.38;1.95;;;;;;;11.85;76.66;94963.38;5057228;28;20207;-81
2023/05/02 01:21:03;;;;;;;5.55;3.50;;;;;;;11.90;76.54;94957.75;5056737;28;20793;-77
2023/05/02 01:23:38;;;;;;;3.60;1.63;;;;;;;11.84;76.70;94948.22;5060581;28;20215;-77
2023/05/02 01:26:15;;;;;;;5.25;3.38;;;;;;;11.77;77.28;94950.63;5062640;28;20302;-78
2023/05/02 01:29:01;;;;;;;2.78;2.50;;;;;;;11.74;77.55;94945.84;5061575;28;20203;-78
2023/05/02 01:31:33;;;;;;;3.20;2.30;;;;;;;11.65;77.93;94953.22;5045347;28;20244;-77
2023/05/02 01:34:01;;;;;;;2.85;2.20;;;;;;;11.73;77.83;94944.25;5056070;28;20291;-78
2023/05/02 01:36:31;;;;;;;5.63;2.45;;;;;;;11.73;77.62;94955.91;5061185;28;20236;-77
2023/05/02 01:39:00;;;;;;;3.97;3.15;;;;;;;11.60;78.26;94961.56;5062713;28;20214;-76
2023/05/02 01:41:28;;;;;;;4.88;3.03;;;;;;;11.56;78.53;94960.59;5049289;28;20622;-77
2023/05/02 01:43:58;;;;;;;2.60;2.25;;;;;;;11.53;78.71;94955.81;5052005;28;20497;-76
2023/05/02 01:46:27;;;;;;;2.58;2.35;;;;;;;11.46;79.10;94960.97;5069035;28;20731;-76
2023/05/02 01:48:57;;;;;;;6.43;3.65;;;;;;;11.31;79.87;94960.38;5051631;28;20204;-77
2023/05/02 01:51:30;;;;;;;3.60;2.65;;;;;;;11.27;80.09;94969.47;5049481;28;20251;-77
2023/05/02 01:54:01;;;;;;;4.38;3.47;;;;;;;11.16;80.73;94966.31;5062846;28;20279;-76
2023/05/02 01:56:31;;;;;;;4.68;3.40;;;;;;;11.07;81.41;94968.22;5062856;28;20284;-77
2023/05/02 01:59:01;;;;;;;3.17;2.88;;;;;;;11.05;81.62;94956.94;5061595;28;20211;-75
2023/05/02 02:01:29;;;;;;;3.28;2.78;;;;;;;11.06;81.70;94958.53;5062649;28;20233;-77
2023/05/02 02:03:57;;;;;;;3.33;2.95;;;;;;;11.03;81.76;94956.44;5037481;28;20289;-76
2023/05/02 02:06:24;;;;;;;3.85;2.80;;;;;;;11.03;82.01;94953.75;5035817;28;20602;-76
2023/05/02 02:08:51;;;;;;;5.47;3.70;;;;;;;11.00;82.19;94960.59;5038518;28;20610;-76
2023/05/02 02:11:25;;;;;;;5.70;3.92;;;;;;;10.92;82.68;94957.91;5042279;28;20246;-76
2023/05/02 02:14:00;;;;;;;3.15;2.15;;;;;;;10.91;82.65;94959.03;5039109;28;20207;-77
2023/05/02 02:16:32;;;;;;;4.85;2.75;;;;;;;10.88;82.76;94957.75;5031959;28;20240;-78
2023/05/02 02:19:07;;;;;;;4.97;3.17;;;;;;;10.83;82.98;94944.34;5029519;28;20209;-75
2023/05/02 02:21:37;;;;;;;5.20;3.42;;;;;;;10.76;83.44;94949.47;5048719;28;20269;-76
2023/05/02 02:24:06;;;;;;;3.22;2.67;;;;;;;10.66;83.96;94950.56;5035812;28;20271;-76
2023/05/02 02:26:34;;;;;;;3.58;2.72;;;;;;;10.66;83.87;94950.56;5023499;28;20239;-76
2023/05/02 02:29:01;;;;;;;7.90;3.45;;;;;;;10.67;83.89;94956.78;5035943;28;20208;-75
2023/05/02 02:31:32;;;;;;;5.40;2.90;;;;;;;10.72;83.41;94953.94;5041103;28;20208;-78
2023/05/02 02:34:00;;;;;;;4.35;3.00;;;;;;;10.71;83.54;94956.97;5030679;28;20232;-76
2023/05/02 02:36:33;;;;;;;3.40;2.92;;;;;;;10.71;83.22;94951.53;5048940;28;20223;-83
2023/05/02 02:39:11;;;;;;;5.75;4.20;;;;;;;10.68;83.46;94953.78;5032363;28;20197;-77
2023/05/02 02:41:44;;;;;;;3.72;2.78;;;;;;;10.65;83.56;94959.84;5028533;28;20257;-77
2023/05/02 02:44:22;;;;;;;6.93;3.58;;;;;;;10.61;83.82;94961.59;5033084;28;20207;-76
2023/05/02 02:47:01;;;;;;;2.65;2.25;;;;;;;10.65;83.62;94959.84;5034745;28;20197;-78
2023/05/02 02:49:35;;;;;;;5.65;3.75;;;;;;;10.62;83.75;94955.06;5039365;28;20203;-75
2023/05/02 02:52:10;;;;;;;5.00;3.15;;;;;;;10.69;83.38;94966.19;5027716;28;20215;-76
2023/05/02 02:54:45;;;;;;;6.13;3.75;;;;;;;10.77;83.10;94971.94;5040068;28;20733;-77
2023/05/02 02:57:18;;;;;;;5.95;4.00;;;;;;;10.74;83.22;94970.66;5034175;28;20281;-75
2023/05/02 02:59:52;;;;;;;3.42;2.33;;;;;;;10.72;83.35;94980.22;5042513;28;20310;-75
2023/05/02 03:02:27;;;;;;;4.82;3.25;;;;;;;10.68;83.39;94964.59;5042048;28;20231;-77
2023/05/02 03:04:56;;;;;;;6.15;2.60;;;;;;;10.78;82.98;94965.41;5055121;28;20229;-76
2023/05/02 03:07:23;;;;;;;10.27;3.70;;;;;;;10.75;83.15;94979.59;5058160;28;20566;-76
2023/05/02 03:09:49;;;;;;;5.15;3.42;;;;;;;10.69;83.38;94981.66;5061132;28;21008;-79
2023/05/02 03:12:16;;;;;;;4.57;3.53;;;;;;;10.71;83.35;94984.06;5057192;28;20670;-76
2023/05/02 03:14:46;;;;;;;5.05;3.97;;;;;;;10.69;83.71;94992.50;5054350;28;20241;-76
2023/05/02 03:17:13;;;;;;;8.25;3.58;;;;;;;10.65;83.66;94991.56;5067704;28;20227;-76
2023/05/02 03:19:41;;;;;;;6.65;3.53;;;;;;;10.68;83.61;94990.91;5054664;28;20550;-77
2023/05/02 03:22:08;;;;;;;5.25;2.92;;;;;;;10.78;83.10;94992.50;5056445;28;20192;-78
2023/05/02 03:24:34;;;;;;;3.72;3.10;;;;;;;10.76;83.21;94997.44;5047990;28;20211;-77
2023/05/02 03:27:01;;;;;;;4.50;2.92;;;;;;;10.75;83.22;94995.84;5059254;28;20210;-77
2023/05/02 03:29:28;;;;;;;4.85;3.20;;;;;;;10.72;83.13;94993.78;5054327;28;20681;-76
2023/05/02 03:31:55;;;;;;;5.85;3.63;;;;;;;10.80;83.07;94998.38;5056116;28;20234;-76
2023/05/02 03:34:22;;;;;;;4.88;4.22;;;;;;;10.95;82.45;95006.03;5051022;28;20307;-77
2023/05/02 03:36:50;;;;;;;4.53;3.58;;;;;;;11.18;81.20;94999.31;5055984;28;20228;-76
2023/05/02 03:39:17;;;;;;;4.47;3.58;;;;;;;11.36;80.18;94995.44;5052809;28;20203;-75
2023/05/02 03:41:44;;;;;;;4.03;3.13;;;;;;;11.50;79.43;94999.88;5059873;28;20203;-80
2023/05/02 03:44:10;;;;;;;2.45;2.05;;;;;;;11.69;78.66;94994.88;5047886;28;20209;-76
2023/05/02 03:46:37;;;;;;;5.88;4.20;;;;;;;11.82;77.79;95002.03;5050243;28;20745;-77
2023/05/02 03:49:04;;;;;;;4.10;3.13;;;;;;;11.95;77.41;95001.00;5047905;28;20261;-79
2023/05/02 03:51:32;;;;;;;4.68;3.33;;;;;;;12.19;76.40;95000.41;5049764;28;20206;-77
2023/05/02 03:54:02;;;;;;;5.32;3.55;;;;;;;12.33;75.56;95005.59;5035930;28;20214;-76
2023/05/02 03:56:29;;;;;;;5.05;3.40;;;;;;;12.64;74.38;94999.78;5052627;28;20636;-77
2023/05/02 03:58:56;;;;;;;4.00;3.22;;;;;;;12.68;74.19;94990.66;5061811;28;20215;-75
2023/05/02 04:01:23;;;;;;;3.67;2.63;;;;;;;12.65;74.34;94996.75;5064071;28;20657;-76
2023/05/02 04:03:50;;;;;;;3.55;3.03;;;;;;;13.01;72.90;94992.59;5012538;28;20913;-74
2023/05/02 04:06:17;;;;;;;3.90;2.80;;;;;;;13.12;72.08;94989.13;5029548;28;20277;-77
2023/05/02 04:08:44;;;;;;;3.28;2.97;;;;;;;13.16;71.58;94984.66;5039712;28;20278;-75
2023/05/02 04:11:12;;;;;;;8.38;3.90;;;;;;;13.31;71.06;94985.94;5040124;28;20666;-75
2023/05/02 04:13:38;;;;;;;7.15;5.00;;;;;;;13.65;70.16;94992.16;5034664;28;20257;-75
2023/05/02 04:16:06;;;;;;;4.38;3.75;;;;;;;14.10;68.33;94990.16;5031126;28;20231;-75
2023/05/02 04:18:32;;;;;;;6.28;4.32;;;;;;;14.45;67.08;94979.59;5028519;28;20222;-76
2023/05/02 04:20:59;;;;;;;5.82;3.05;;;;;;;14.08;67.76;94981.50;5039993;28;20226;-76
2023/05/02 04:23:26;;;;;;;3.92;2.92;;;;;;;14.08;67.94;94986.97;5020777;28;20201;-76
2023/05/02 04:25:53;;;;;;;3.38;3.00;;;;;;;14.46;66.50;94985.84;5025241;28;20625;-76
2023/05/02 04:28:22;;;;;;;2.95;2.38;;;;;;;14.53;65.83;94980.59;5034164;28;20805;-76
2023/05/02 04:30:50;;;;;;;8.20;4.60;;;;;;;14.43;65.76;94987.31;5028725;28;20270;-76
2023/05/02 04:33:17;;;;;;;6.57;3.95;;;;;;;14.54;64.92;94982.19;5024233;28;20279;-77
2023/05/02 04:35:44;;;;;;;4.15;2.80;;;;;;;14.74;64.37;95000.34;5025097;28;20582;-76
2023/05/02 04:38:11;;;;;;;3.63;2.97;;;;;;;14.92;63.74;94988.00;5024799;28;20266;-76
2023/05/02 04:40:38;;;;;;;4.90;3.22;;;;;;;14.93;63.42;94995.03;5025501;28;20204;-74
2023/05/02 04:43:04;;;;;;;2.70;2.45;;;;;;;14.75;63.74;94993.75;5025884;28;20216;-76
2023/05/02 04:45:34;;;;;;;4.53;3.45;;;;;;;14.54;64.58;94993.91;5040491;28;20299;-77
2023/05/02 04:48:01;;;;;;;3.00;2.28;;;;;;;14.66;63.66;95001.25;5036711;28;20663;-76
2023/05/02 04:50:28;;;;;;;5.20;3.97;;;;;;;14.50;64.21;94994.91;5029475;28;20197;-76
2023/05/02 04:52:58;;;;;;;5.93;4.05;;;;;;;14.67;63.56;94991.13;5037556;28;20208;-76
2023/05/02 04:55:25;;;;;;;4.50;2.65;;;;;;;14.69;63.10;95006.03;5026931;28;20334;-75
2023/05/02 04:57:52;;;;;;;4.70;3.13;;;;;;;15.21;61.99;94994.25;5025239;28;20782;-74
2023/05/02 05:00:18;;;;;;;9.43;4.72;;;;;;;15.73;59.99;94994.13;5024921;28;20250;-75
2023/05/02 05:02:49;;;;;;;3.08;2.08;;;;;;;15.27;60.54;95001.06;5046766;28;20239;-74
2023/05/02 05:05:17;;;;;;;9.05;2.92;;;;;;;14.83;61.78;95008.38;5051649;28;20304;-74
2023/05/02 05:07:44;;;;;;;4.72;3.00;;;;;;;15.69;60.21;95000.66;5048688;28;20710;-76
2023/05/02 05:10:11;;;;;;;3.35;2.58;;;;;;;15.08;60.94;95000.91;5043838;28;20242;-77
2023/05/02 05:12:38;;;;;;;6.22;3.10;;;;;;;15.10;61.77;94988.50;5044584;28;20218;-75
2023/05/02 05:15:05;;;;;;;7.00;3.58;;;;;;;15.05;61.25;94999.66;5052609;28;20657;-77
2023/05/02 05:17:32;;;;;;;5.95;2.97;;;;;;;15.25;60.51;94997.91;5055155;28;20243;-76
2023/05/02 05:20:00;;;;;;;2.55;2.05;;;;;;;14.72;61.88;95013.53;5048421;28;20204;-74
2023/05/02 05:22:27;;;;;;;4.32;2.53;;;;;;;14.57;63.19;94998.66;5048372;28;20245;-75
2023/05/02 05:24:54;;;;;;;5.70;3.20;;;;;;;15.47;60.93;95008.25;5048448;28;20260;-76
2023/05/02 05:27:21;;;;;;;5.80;4.10;;;;;;;16.00;58.92;95006.13;5049451;28;20291;-76
2023/05/02 05:29:48;;;;;;;6.53;3.40;;;;;;;16.54;57.51;95014.47;5047688;28;20204;-76
2023/05/02 05:32:15;;;;;;;9.20;4.47;;;;;;;16.76;56.49;95013.06;5045178;28;20446;-75
2023/05/02 05:34:43;;;;;;;4.95;3.40;;;;;;;16.35;56.81;95004.28;5055295;28;20302;-82
2023/05/02 05:37:15;;;;;;;6.70;3.90;;;;;;;16.01;58.24;95010.44;5052656;28;20235;-75
2023/05/02 05:39:41;;;;;;;8.48;2.70;;;;;;;16.05;57.73;95003.16;5058001;28;20230;-78
2023/05/02 05:42:08;;;;;;;6.57;4.60;;;;;;;15.95;58.28;95017.34;5055957;28;20200;-77
2023/05/02 05:44:35;;;;;;;6.82;3.83;;;;;;;16.32;57.24;95015.13;5059057;28;20733;-75
2023/05/02 05:47:08;;;;;;;2.90;2.58;;;;;;;16.38;56.67;95010.97;5062004;28;20207;-75
2023/05/02 05:49:35;;;;;;;2.80;2.33;;;;;;;16.21;56.71;95031.28;5048374;28;20211;-75
2023/05/02 05:52:03;;;;;;;5.40;4.25;;;;;;;16.87;55.22;95024.22;5047621;28;20203;-76
2023/05/02 05:54:31;;;;;;;7.05;4.50;;;;;;;17.25;54.52;95018.00;5048003;28;20207;-77
2023/05/02 05:56:58;;;;;;;4.18;3.40;;;;;;;17.32;53.81;95012.66;5042518;28;20281;-77
2023/05/02 05:59:24;;;;;;;3.75;2.95;;;;;;;17.60;53.59;95015.97;5046612;28;20200;-79
2023/05/02 06:01:52;;;;;;;5.05;2.22;;;;;;;18.06;51.71;95014.06;5048054;28;20261;-79
2023/05/02 06:04:19;;;;;;;3.83;2.65;;;;;;;18.24;51.19;95017.13;5048356;28;20678;-77
2023/05/02 06:06:46;;;;;;;4.15;3.40;;;;;;;17.24;53.35;95027.34;5047727;28;20682;-77
2023/05/02 06:09:13;;;;;;;5.32;3.72;;;;;;;17.84;51.88;95022.28;5047135;28;20484;-79
2023/05/02 06:11:41;;;;;;;5.35;3.50;;;;;;;17.69;51.78;95027.50;5047975;28;20823;-78
2023/05/02 06:14:08;;;;;;;7.35;3.22;;;;;;;17.63;52.07;95018.00;5059895;28;20199;-77
2023/05/02 06:16:36;;;;;;;3.92;3.22;;;;;;;18.17;50.36;95014.28;5048580;28;20301;-77
2023/05/02 06:19:03;;;;;;;3.45;2.72;;;;;;;18.19;49.63;95022.91;5047271;28;20224;-78
2023/05/02 06:21:31;;;;;;;4.60;3.13;;;;;;;18.26;50.21;95011.28;5047659;28;20203;-79
2023/05/02 06:23:57;;;;;;;3.60;2.97;;;;;;;17.57;51.36;95013.94;5047164;28;20236;-77
2023/05/02 06:26:24;;;;;;;4.20;3.13;;;;;;;17.52;51.53;95014.22;5047289;28;20208;-78
2023/05/02 06:28:54;;;;;;;4.50;3.55;;;;;;;18.01;50.28;95011.66;5044784;28;20203;-75
2023/05/02 06:31:21;;;;;;;6.45;3.95;;;;;;;17.69;50.79;95005.59;5047657;28;20258;-75
2023/05/02 06:33:48;;;;;;;3.88;3.45;;;;;;;17.55;50.83;95013.50;5047207;28;20223;-75
2023/05/02 06:36:14;;;;;;;5.05;2.97;;;;;;;18.40;49.43;95006.03;5047055;28;20208;-75
2023/05/02 06:38:41;;;;;;;4.10;2.75;;;;;;;19.07;47.81;95001.53;5060223;28;20242;-75
2023/05/02 06:41:13;;;;;;;6.00;2.92;;;;;;;18.87;47.80;95002.81;5047008;28;20204;-76
2023/05/02 06:43:42;;;;;;;4.47;3.42;;;;;;;18.87;47.80;95005.56;5047210;28;20212;-74
2023/05/02 06:46:11;;;;;;;4.38;3.00;;;;;;;18.04;49.11;95007.41;5047196;28;20216;-77
2023/05/02 06:48:38;;;;;;;4.70;3.28;;;;;;;18.44;47.96;95007.66;5046795;28;20211;-77
2023/05/02 06:51:04;;;;;;;6.63;2.97;;;;;;;19.18;46.76;94996.97;5046857;28;20231;-75
2023/05/02 06:53:31;;;;;;;4.72;3.20;;;;;;;18.36;48.31;94999.69;5048956;28;20256;-76
2023/05/02 06:55:58;;;;;;;7.47;3.40;;;;;;;18.44;48.02;95002.19;5056541;28;20681;-75
2023/05/02 06:58:25;;;;;;;4.55;3.22;;;;;;;19.37;45.73;94992.50;5045938;28;20305;-75
2023/05/02 07:00:52;;;;;;;5.45;2.92;;;;;;;19.33;45.63;94994.41;5046462;28;20200;-75
2023/05/02 07:03:20;;;;;;;5.78;3.08;;;;;;;19.24;45.58;94988.41;5060232;28;20285;-76
2023/05/02 07:05:46;;;;;;;4.78;2.60;;;;;;;19.04;46.09;95012.47;5046799;28;20285;-75
2023/05/02 07:08:13;;;;;;;6.32;2.80;;;;;;;18.39;46.91;94996.22;5046575;28;20682;-76
2023/05/02 07:10:40;;;;;;;3.97;2.75;;;;;;;18.42;46.31;95010.00;5046442;28;20697;-74
2023/05/02 07:13:07;;;;;;;3.88;2.40;;;;;;;18.45;46.80;94998.25;5046368;28;20346;-77
2023/05/02 07:15:33;;;;;;;4.40;2.80;;;;;;;18.37;46.61;95002.06;5046481;28;20200;-78
2023/05/02 07:18:00;;;;;;;5.93;2.95;;;;;;;17.90;47.09;95023.59;5046849;28;20324;-75
2023/05/02 07:20:29;;;;;;;3.97;2.53;;;;;;;18.12;47.28;94992.63;5046157;28;20682;-78
2023/05/02 07:22:56;;;;;;;4.47;2.63;;;;;;;18.47;46.61;95001.44;5046526;28;20215;-76
2023/05/02 07:25:22;;;;;;;4.65;2.42;;;;;;;18.64;46.01;95010.34;5046078;28;20689;-76
2023/05/02 07:27:49;;;;;;;5.18;3.00;;;;;;;17.89;47.45;95014.56;5046930;28;20215;-75
2023/05/02 07:30:16;;;;;;;3.92;2.58;;;;;;;18.03;47.59;95011.28;5045590;28;20212;-76
2023/05/02 07:32:43;;;;;;;3.20;2.90;;;;;;;18.50;46.25;95007.34;5046283;28;20223;-76
2023/05/02 07:35:09;;;;;;;3.47;2.88;;;;;;;17.91;46.82;95011.44;5046319;28;20212;-76
2023/05/02 07:37:37;;;;;;;4.40;2.85;;;;;;;17.67;47.57;95007.91;5046235;28;20223;-74
2023/05/02 07:40:06;;;;;;;3.28;2.65;;;;;;;17.74;47.57;94997.09;5045862;28;20237;-76
2023/05/02 07:42:33;;;;;;;4.75;3.10;;;;;;;18.20;47.45;94997.06;5046028;28;20620;-79
2023/05/02 07:45:00;;;;;;;4.47;2.95;;;;;;;18.88;45.44;94998.13;5046045;28;20219;-77
2023/05/02 07:47:28;;;;;;;4.40;3.03;;;;;;;18.87;45.07;95016.53;5045875;28;20208;-80
2023/05/02 07:49:55;;;;;;;4.60;2.42;;;;;;;18.73;45.29;95005.34;5057728;28;20763;-76
2023/05/02 07:52:22;;;;;;;2.95;2.58;;;;;;;18.01;47.27;95010.88;5044971;28;20215;-76
2023/05/02 07:54:51;;;;;;;3.88;2.55;;;;;;;17.63;46.98;94996.06;5045637;28;20276;-80
2023/05/02 07:57:18;;;;;;;4.03;2.78;;;;;;;17.86;47.65;95004.34;5045266;28;20234;-76
2023/05/02 07:59:45;;;;;;;4.47;3.03;;;;;;;18.75;46.10;95000.28;5045261;28;20318;-76
2023/05/02 08:02:12;;;;;;;7.63;2.92;;;;;;;19.32;44.77;95006.56;5045291;28;20491;-77
2023/05/02 08:04:39;;;;;;;3.72;2.38;;;;;;;18.84;45.14;94998.09;5045195;28;20281;-75
2023/05/02 08:07:06;;;;;;;2.88;2.58;;;;;;;18.44;46.01;95002.19;5045883;28;20207;-77
2023/05/02 08:09:33;;;;;;;2.80;2.30;;;;;;;18.73;45.40;95017.13;5045263;28;20667;-74
2023/05/02 08:12:02;;;;;;;4.20;2.50;;;;;;;19.02;45.59;95004.59;5046068;28;20226;-77
2023/05/02 08:14:29;;;;;;;3.17;2.45;;;;;;;18.63;45.40;95004.06;5045324;28;20210;-75
2023/05/02 08:16:55;;;;;;;4.53;2.85;;;;;;;18.41;45.77;95013.88;5045373;28;20694;-75
2023/05/02 08:19:22;;;;;;;6.30;2.63;;;;;;;17.98;47.54;95008.84;5045229;28;20216;-76
2023/05/02 08:21:49;;;;;;;4.82;2.42;;;;;;;19.32;46.21;94998.31;5045411;28;20210;-77
2023/05/02 08:24:16;;;;;;;4.25;1.98;;;;;;;18.65;45.07;95009.19;5045472;28;20207;-75
2023/05/02 08:26:42;;;;;;;4.32;2.60;;;;;;;18.25;46.20;95005.00;5045908;28;20207;-75
2023/05/02 08:29:11;;;;;;;3.10;2.55;;;;;;;18.59;46.46;94996.91;5046892;28;20207;-76
2023/05/02 08:31:38;;;;;;;3.97;2.72;;;;;;;18.89;45.09;94995.00;5057530;28;20227;-76
2023/05/02 08:34:05;;;;;;;7.43;3.08;;;;;;;19.04;45.66;94999.53;5045506;28;20203;-77
2023/05/02 08:36:32;;;;;;;5.15;2.67;;;;;;;18.83;45.90;94999.25;5045676;28;20206;-76
2023/05/02 08:38:59;;;;;;;3.97;2.55;;;;;;;19.14;44.86;94998.88;5045434;28;20235;-75
2023/05/02 08:41:29;;;;;;;3.72;2.28;;;;;;;19.01;44.69;94992.03;5045965;28;20257;-78
2023/05/02 08:43:57;;;;;;;7.15;2.80;;;;;;;19.54;43.86;94991.94;5058972;28;20621;-77
2023/05/02 08:46:26;;;;;;;5.38;2.55;;;;;;;19.79;42.88;94992.22;5045337;28;20686;-75
2023/05/02 08:48:53;;;;;;;3.28;2.35;;;;;;;19.42;43.61;94990.19;5045397;28;20215;-77
2023/05/02 08:51:24;;;;;;;4.47;2.80;;;;;;;19.17;44.54;94989.88;5046907;28;20254;-76
2023/05/02 08:53:52;;;;;;;4.05;2.20;;;;;;;18.47;44.81;94990.44;5063239;28;20206;-75
2023/05/02 08:56:19;;;;;;;4.43;2.60;;;;;;;18.78;45.64;94994.88;5048870;28;20582;-76
2023/05/02 08:58:46;;;;;;;5.45;2.38;;;;;;;18.29;45.82;94994.09;5054591;28;20325;-79
2023/05/02 09:01:16;;;;;;;2.85;2.20;;;;;;;18.71;45.69;94989.28;5056430;28;20547;-76
2023/05/02 09:03:46;;;;;;;2.65;2.33;;;;;;;18.64;45.47;94996.59;5049132;28;20228;-76
2023/05/02 09:06:16;;;;;;;5.50;2.53;;;;;;;18.55;45.56;94996.84;5048672;28;20220;-76
2023/05/02 09:08:44;;;;;;;4.20;2.28;;;;;;;18.12;45.92;95003.59;5048900;28;20383;-76
2023/05/02 09:11:13;;;;;;;2.60;2.40;;;;;;;18.10;46.07;94979.28;5048645;28;20268;-77
2023/05/02 09:13:41;;;;;;;5.75;2.60;;;;;;;19.08;45.04;94975.66;5048806;28;20203;-77
2023/05/02 09:16:09;;;;;;;4.10;2.50;;;;;;;19.96;42.95;94968.78;5050913;28;20212;-77
2023/05/02 09:18:38;;;;;;;5.38;2.67;;;;;;;19.84;41.73;94976.13;5059143;28;20280;-76
2023/05/02 09:21:08;;;;;;;11.70;2.30;;;;;;;19.25;42.64;94976.25;5048723;28;20234;-78
2023/05/02 09:23:37;;;;;;;2.97;2.38;;;;;;;20.06;41.79;94979.09;5048238;28;20318;-78
2023/05/02 09:26:12;;;;;;;4.40;2.13;;;;;;;20.02;41.08;94970.81;5047961;28;20208;-77
2023/05/02 09:28:40;;;;;;;2.50;2.15;;;;;;;20.24;41.37;94980.81;5048615;28;20613;-77
2023/05/02 09:31:09;;;;;;;7.32;2.50;;;;;;;19.82;41.27;94974.94;5048654;28;20298;-77
2023/05/02 09:33:36;;;;;;;4.00;2.20;;;;;;;19.43;42.38;94958.00;5048145;28;20301;-77
2023/05/02 09:36:03;;;;;;;3.85;2.50;;;;;;;20.14;42.14;94964.22;5048235;28;20533;-78
2023/05/02 09:38:31;;;;;;;4.30;2.30;;;;;;;20.67;41.02;94958.34;5048398;28;20331;-77
2023/05/02 09:40:59;;;;;;;5.32;2.50;;;;;;;20.77;41.26;94963.97;5048214;28;20212;-76
2023/05/02 09:43:26;;;;;;;2.75;2.35;;;;;;;21.25;39.57;94950.81;5047865;28;20281;-77
2023/05/02 09:45:57;;;;;;;3.25;2.38;;;;;;;21.31;39.33;94942.19;5055538;28;20207;-77
2023/05/02 09:48:24;;;;;;;3.85;2.33;;;;;;;20.98;39.66;94956.97;5054079;28;20207;-77
2023/05/02 09:50:51;;;;;;;3.40;2.20;;;;;;;20.54;39.52;94946.88;5048085;28;20765;-77
2023/05/02 09:53:17;;;;;;;6.10;2.47;;;;;;;20.01;40.77;94954.69;5048179;28;20680;-77
2023/05/02 09:55:46;;;;;;;5.13;2.35;;;;;;;20.51;39.01;94953.94;5061059;28;20199;-78
2023/05/02 09:58:24;;;;;;;4.43;2.20;;;;;;;20.48;40.25;94946.47;5048263;28;20235;-78
2023/05/02 10:00:51;;;;;;;2.40;2.05;;;;;;;20.48;39.88;94951.97;5048466;28;20271;-77
2023/05/02 10:03:19;;;;;;;3.13;2.10;;;;;;;20.37;40.32;94951.06;5047534;28;20243;-78
2023/05/02 10:05:47;;;;;;;5.50;2.20;;;;;;;20.26;40.76;94943.88;5047851;28;20250;-77
2023/05/02 10:08:16;;;;;;;2.80;2.03;;;;;;;20.62;39.65;94940.25;5047638;28;20212;-76
2023/05/02 10:10:50;;;;;;;3.55;1.77;;;;;;;20.22;39.35;94943.88;5047920;28;20315;-76
2023/05/02 10:13:20;;;;;;;3.30;2.10;;;;;;;20.42;39.46;94931.47;5047483;28;20626;-76
2023/05/02 10:15:51;;;;;;;2.00;1.85;;;;;;;20.79;39.41;94928.53;5047738;28;20296;-77
2023/05/02 10:18:26;;;;;;;3.40;1.90;;;;;;;19.96;39.35;94933.03;5061311;28;20239;-75
2023/05/02 10:20:58;;;;;;;4.85;1.98;;;;;;;19.84;39.30;94929.41;5047943;28;20557;-77
2023/05/02 10:23:29;;;;;;;6.03;2.25;;;;;;;19.99;39.76;94932.28;5059443;28;20629;-77
2023/05/02 10:25:58;;;;;;;4.72;2.20;;;;;;;20.11;38.31;94943.78;5047892;28;20203;-76
2023/05/02 10:28:26;;;;;;;3.25;2.05;;;;;;;19.98;39.10;94922.44;5047661;28;20208;-77
2023/05/02 10:30:54;;;;;;;5.40;2.03;;;;;;;19.81;39.95;94921.94;5047699;28;20269;-78
2023/05/02 10:33:22;;;;;;;2.20;1.90;;;;;;;20.05;38.83;94914.25;5047053;28;20231;-78
2023/05/02 10:35:49;;;;;;;3.67;2.10;;;;;;;20.54;38.55;94911.09;5047594;28;20226;-78
2023/05/02 10:38:18;;;;;;;2.25;1.83;;;;;;;20.54;36.79;94911.88;5047574;28;20610;-78
2023/05/02 10:40:54;;;;;;;2.10;1.90;;;;;;;20.52;36.83;94908.72;5051204;28;20577;-80
2023/05/02 10:43:25;;;;;;;2.42;1.92;;;;;;;20.36;37.26;94910.22;5054419;28;20301;-77
2023/05/02 10:45:53;;;;;;;4.43;1.80;;;;;;;20.29;36.78;94910.91;5046228;28;20660;-76
2023/05/02 10:48:22;;;;;;;3.22;1.80;;;;;;;20.49;36.94;94903.22;5059165;28;20238;-80
2023/05/02 10:50:50;;;;;;;9.98;2.38;;;;;;;20.53;36.77;94893.78;5047131;28;20253;-76
2023/05/02 10:53:31;;;;;;;3.17;1.80;;;;;;;20.83;35.94;94907.31;5060180;28;20276;-78
2023/05/02 10:56:21;;;;;;;4.60;1.85;;;;;;;21.21;35.89;94905.94;5046702;28;20215;-77
2023/05/02 10:58:50;;;;;;;2.72;2.00;;;;;;;20.61;36.64;94904.84;5049718;28;20223;-77
2023/05/02 11:01:39;;;;;;;7.78;2.00;;;;;;;20.95;37.14;94897.94;5053357;28;20220;-76
2023/05/02 11:04:07;;;;;;;2.17;1.73;;;;;;;20.71;36.52;94899.41;5046906;28;20203;-75
2023/05/02 11:06:36;;;;;;;4.25;1.83;;;;;;;20.56;36.60;94898.53;5046520;28;20622;-77
2023/05/02 11:09:34;;;;;;;4.00;2.03;;;;;;;20.30;36.99;94912.47;5046591;28;20280;-76
2023/05/02 11:12:03;;;;;;;2.67;1.95;;;;;;;19.86;37.49;94894.06;5034414;28;20741;-78
2023/05/02 11:14:48;;;;;;;4.50;2.10;;;;;;;19.93;37.98;94909.06;5044039;28;20258;-76
2023/05/02 11:17:16;;;;;;;2.10;1.65;;;;;;;20.28;37.21;94903.81;5046746;28;20207;-77
2023/05/02 11:20:28;;;;;;;3.05;1.90;;;;;;;20.70;36.85;94886.81;5046610;28;20228;-77
2023/05/02 11:22:57;;;;;;;2.08;1.80;;;;;;;20.49;36.88;94895.75;5046914;28;20219;-77
2023/05/02 11:25:35;;;;;;;2.15;1.80;;;;;;;20.50;37.45;94894.53;5046437;28;20215;-76
2023/05/02 11:28:03;;;;;;;2.80;2.00;;;;;;;20.61;37.15;94883.63;5046784;28;20626;-77
2023/05/02 11:30:47;;;;;;;2.92;2.10;;;;;;;20.72;36.57;94880.91;5046121;28;20569;-78
2023/05/02 11:33:20;;;;;;;3.28;1.90;;;;;;;20.80;37.24;94879.75;5046659;28;20227;-76
2023/05/02 11:35:48;;;;;;;3.67;2.30;;;;;;;21.23;36.44;94876.03;5060169;28;20575;-77
2023/05/02 11:38:17;;;;;;;6.10;2.50;;;;;;;21.32;36.53;94874.88;5046074;28;20199;-76
2023/05/02 11:40:54;;;;;;;4.78;1.75;;;;;;;20.88;36.71;94867.63;5046443;28;20199;-76
2023/05/02 11:43:23;;;;;;;4.45;2.00;;;;;;;21.00;36.55;94867.25;5045910;28;20242;-76